createdAt,value
2023-03-01T00:01:12.611Z,68.90599
2023-03-01T00:06:14.262Z,70.83147
2023-03-01T00:11:15.917Z,69.419
2023-03-01T00:16:17.609Z,67.76964
2023-03-01T00:21:19.303Z,70.29641
2023-03-01T00:26:20.905Z,69.52442
2023-03-01T00:31:22.759Z,70.46812
2023-03-01T00:36:24.405Z,71.33239
2023-03-01T00:41:26.008Z,73.24201
2023-03-01T00:46:27.826Z,71.35721
2023-03-01T00:51:29.627Z,68.86043
2023-03-01T00:56:31.816Z,71.92164
2023-03-01T01:01:33.699Z,69.12816
2023-03-01T01:06:35.578Z,69.51549
2023-03-01T01:11:37.198Z,70.05475
2023-03-01T01:16:38.825Z,71.11324
2023-03-01T01:21:40.468Z,72.69512
2023-03-01T01:26:43.332Z,71.93729
2023-03-01T01:31:44.933Z,71.20825
2023-03-01T01:36:46.529Z,71.98059
2023-03-01T01:41:48.391Z,72.30159
2023-03-01T01:46:50.014Z,72.8359
2023-03-01T01:51:51.861Z,72.0102
2023-03-01T01:56:53.462Z,71.34534
2023-03-01T02:01:55.090Z,71.95192
2023-03-01T02:06:56.874Z,69.06338
2023-03-01T02:11:58.543Z,71.99275
2023-03-01T02:17:00.253Z,71.79347
2023-03-01T02:22:01.908Z,71.32608
2023-03-01T02:27:03.638Z,71.70516
2023-03-01T02:32:05.293Z,70.74947
2023-03-01T02:37:07.008Z,69.10406
2023-03-01T02:42:08.702Z,69.59464
2023-03-01T02:47:10.310Z,69.80845
2023-03-01T02:52:11.981Z,71.0332
2023-03-01T02:57:13.837Z,71.03799
2023-03-01T03:02:15.502Z,73.60774
2023-03-01T03:07:17.136Z,72.22251
2023-03-01T03:12:18.766Z,70.16297
2023-03-01T03:17:21.121Z,71.79897
2023-03-01T03:22:22.885Z,77.02244
2023-03-01T03:27:24.538Z,75.6299
2023-03-01T03:32:26.321Z,71.41502
2023-03-01T03:37:28.004Z,71.40351
2023-03-01T03:42:29.788Z,69.88535
2023-03-01T03:47:31.401Z,74.19442
2023-03-01T03:52:33.073Z,75.9148
2023-03-01T03:57:34.954Z,74.3323
2023-03-01T04:02:36.594Z,79.16814
2023-03-01T04:07:38.247Z,77.13388
2023-03-01T04:12:40.017Z,77.47831
2023-03-01T04:17:41.690Z,77.68122
2023-03-01T04:22:43.280Z,77.63274
2023-03-01T04:27:44.966Z,77.99106
2023-03-01T04:32:46.652Z,79.2249
2023-03-01T04:37:48.343Z,81.55101
2023-03-01T04:42:50.139Z,77.76868
2023-03-01T04:47:51.796Z,81.53186
2023-03-01T04:52:53.370Z,79.72616
2023-03-01T04:57:55.009Z,74.87514
2023-03-01T05:02:56.719Z,72.72686
2023-03-01T05:07:58.340Z,72.84617
2023-03-01T05:12:59.990Z,75.00657
2023-03-01T05:18:01.677Z,72.03907
2023-03-01T05:23:03.332Z,72.96332
2023-03-01T05:28:05.042Z,71.66277
2023-03-01T05:33:06.669Z,70.91935
2023-03-01T05:38:08.268Z,68.77016
2023-03-01T05:43:09.931Z,70.4389
2023-03-01T05:48:11.571Z,71.9433
2023-03-01T05:53:13.214Z,71.68261
2023-03-01T05:58:14.852Z,71.20476
2023-03-01T06:03:16.510Z,71.60792
2023-03-01T06:08:18.261Z,73.67042
2023-03-01T06:13:19.905Z,75.37709
2023-03-01T06:18:21.535Z,74.17589
2023-03-01T06:23:23.140Z,72.09938
2023-03-01T06:28:24.891Z,69.6022
2023-03-01T06:33:26.494Z,72.86811
2023-03-01T06:38:28.143Z,72.19643
2023-03-01T06:43:30.001Z,76.26216
2023-03-01T06:48:31.636Z,76.40668
2023-03-01T06:53:33.304Z,74.94143
2023-03-01T06:58:34.906Z,72.01782
2023-03-01T07:03:36.535Z,73.97514
2023-03-01T07:08:38.134Z,74.00481
2023-03-01T07:13:40.018Z,73.85625
2023-03-01T07:18:41.787Z,76.04397
2023-03-01T07:23:43.417Z,76.00336
2023-03-01T07:28:45.043Z,74.07295
2023-03-01T07:33:46.682Z,75.52292
2023-03-01T07:38:48.297Z,72.46239
2023-03-01T07:43:49.890Z,70.50771
2023-03-01T07:48:51.536Z,71.27195
2023-03-01T07:53:53.154Z,72.21689
2023-03-01T07:58:54.761Z,76.06162
2023-03-01T08:03:56.406Z,73.30215
2023-03-01T08:08:58.024Z,72.26307
2023-03-01T08:13:59.691Z,73.07073
2023-03-01T08:19:01.534Z,71.83958
2023-03-01T08:24:03.378Z,75.86641
2023-03-01T08:29:04.987Z,77.68458
2023-03-01T08:34:06.691Z,78.59598
2023-03-01T08:39:08.461Z,81.54405
2023-03-01T08:44:10.418Z,81.63386
2023-03-01T08:49:12.019Z,79.52716
2023-03-01T08:54:13.851Z,76.81638
2023-03-01T08:59:15.593Z,74.81793
2023-03-01T09:04:17.343Z,73.62864
2023-03-01T09:09:19.052Z,71.08799
2023-03-01T09:14:20.682Z,71.43952
2023-03-01T09:19:22.352Z,70.47206
2023-03-01T09:24:24.107Z,70.85647
2023-03-01T09:29:25.720Z,69.56802
2023-03-01T09:34:27.449Z,70.54048
2023-03-01T09:39:29.125Z,69.31862
2023-03-01T09:44:30.827Z,75.30517
2023-03-01T09:49:32.505Z,77.86767
2023-03-01T09:54:34.127Z,78.95058
2023-03-01T09:59:35.896Z,76.02855
2023-03-01T10:04:37.816Z,75.39366
2023-03-01T10:09:39.592Z,73.31232
2023-03-01T10:14:41.192Z,72.58718
2023-03-01T10:19:42.798Z,70.20175
2023-03-01T10:24:44.400Z,70.42509
2023-03-01T10:29:46.077Z,73.78866
2023-03-01T10:34:47.926Z,74.93266
2023-03-01T10:39:49.574Z,75.69609
2023-03-01T10:44:51.320Z,72.84207
2023-03-01T10:49:53.000Z,72.18996
2023-03-01T10:54:54.633Z,73.22195
2023-03-01T10:59:56.289Z,70.5332
2023-03-01T11:04:58.166Z,77.56717
2023-03-01T11:09:59.864Z,74.60074
2023-03-01T11:15:01.486Z,74.97233
2023-03-01T11:20:03.313Z,75.72089
2023-03-01T11:25:10.614Z,71.51076
2023-03-01T11:30:12.675Z,73.61682
2023-03-01T11:35:14.269Z,69.80304
2023-03-01T11:40:16.028Z,69.00688
2023-03-01T11:45:17.903Z,71.85264
2023-03-01T11:50:19.500Z,71.38847
2023-03-01T11:55:21.207Z,73.73159
2023-03-01T12:00:22.788Z,78.59295
2023-03-01T12:05:24.354Z,78.97817
2023-03-01T12:10:25.962Z,77.0471
2023-03-01T12:15:27.806Z,77.03659
2023-03-01T12:20:29.457Z,76.00911
2023-03-01T12:25:31.059Z,77.01964
2023-03-01T12:30:32.675Z,76.10781
2023-03-01T12:35:34.339Z,77.25053
2023-03-01T12:40:36.324Z,74.90364
2023-03-01T12:45:38.352Z,70.43229
2023-03-01T12:50:40.042Z,72.52258
2023-03-01T12:55:41.742Z,72.87194
2023-03-01T13:00:43.397Z,75.21253
2023-03-01T13:05:45.109Z,77.01482
2023-03-01T13:10:46.784Z,77.18385
2023-03-01T13:15:48.764Z,74.68806
2023-03-01T13:20:50.547Z,70.67673
2023-03-01T13:25:52.396Z,71.41107
2023-03-01T13:30:54.040Z,70.62618
2023-03-01T13:35:55.668Z,71.35236
2023-03-01T13:40:57.317Z,68.89597
2023-03-01T13:45:59.064Z,66.74145
2023-03-01T13:51:00.734Z,69.76864
2023-03-01T13:56:02.415Z,67.56714
2023-03-01T14:01:04.031Z,68.16471
2023-03-01T14:06:14.010Z,68.23493
2023-03-01T14:11:16.775Z,70.38588
2023-03-01T14:16:18.417Z,71.07043
2023-03-01T14:21:20.194Z,68.70302
2023-03-01T14:26:21.769Z,66.62669
2023-03-01T14:31:23.521Z,67.37087
2023-03-01T14:36:25.143Z,66.28777
2023-03-01T14:41:26.740Z,71.03568
2023-03-01T14:46:28.513Z,71.40964
2023-03-01T14:51:30.261Z,73.72762
2023-03-01T14:56:32.202Z,71.75665
2023-03-01T15:01:34.132Z,70.97762
2023-03-01T15:06:35.786Z,70.9989
2023-03-01T15:11:37.412Z,72.75968
2023-03-01T15:16:39.087Z,70.53799
2023-03-01T15:21:40.705Z,69.98985
2023-03-01T15:26:42.299Z,73.69329
2023-03-01T15:31:44.076Z,71.67421
2023-03-01T15:36:45.724Z,72.22686
2023-03-01T15:41:47.323Z,72.30118
2023-03-01T15:46:49.079Z,70.91634
2023-03-01T15:51:50.698Z,70.93176
2023-03-01T15:56:52.387Z,72.10143
2023-03-01T16:01:53.992Z,70.38953
2023-03-01T16:06:55.616Z,68.44089
2023-03-01T16:11:57.402Z,70.89298
2023-03-01T16:16:59.029Z,67.69905
2023-03-01T16:22:00.667Z,67.93703
2023-03-01T16:27:02.263Z,66.44927
2023-03-01T16:32:03.988Z,71.03769
2023-03-01T16:37:06.043Z,71.63747
2023-03-01T16:42:07.686Z,70.1332
2023-03-01T16:47:09.416Z,67.52297
2023-03-01T16:52:11.079Z,67.44505
2023-03-01T16:57:12.728Z,66.81832
2023-03-01T17:02:14.321Z,65.90961
2023-03-01T17:07:15.904Z,65.46098
2023-03-01T17:12:17.598Z,65.95519
2023-03-01T17:17:19.447Z,66.83397
2023-03-01T17:22:21.121Z,64.88787
2023-03-01T17:27:25.342Z,64.34793
2023-03-01T17:32:27.382Z,64.64999
2023-03-01T17:37:29.363Z,62.82545
2023-03-01T17:42:30.987Z,61.86121
2023-03-01T17:47:32.644Z,63.94148
2023-03-01T17:52:34.270Z,62.68889
2023-03-01T17:57:35.890Z,65.11263
2023-03-01T18:02:37.602Z,60.91338
2023-03-01T18:07:39.262Z,60.9147
2023-03-01T18:12:40.880Z,61.98208
2023-03-01T18:17:42.497Z,63.12271
2023-03-01T18:22:44.121Z,61.58992
2023-03-01T18:27:45.960Z,63.09888
2023-03-01T18:32:47.606Z,63.23956
2023-03-01T18:37:49.201Z,62.44953
2023-03-01T18:42:50.878Z,60.72809
2023-03-01T18:47:52.670Z,58.94348
2023-03-01T18:52:54.327Z,59.50644
2023-03-01T18:57:56.057Z,58.98725
2023-03-01T19:02:57.707Z,57.74468
2023-03-01T19:07:59.393Z,55.67525
2023-03-01T19:13:00.987Z,55.9702
2023-03-01T19:18:02.580Z,56.47279
2023-03-01T19:23:04.235Z,57.28504
2023-03-01T19:28:05.954Z,57.24963
2023-03-01T19:33:07.581Z,57.09633
2023-03-01T19:38:09.187Z,59.20462
2023-03-01T19:43:10.841Z,57.10608
2023-03-01T19:48:12.518Z,56.86092
2023-03-01T19:53:14.110Z,55.17349
2023-03-01T19:58:15.941Z,56.77466
2023-03-01T20:03:17.555Z,55.20712
2023-03-01T20:08:19.308Z,53.98499
2023-03-01T20:13:20.915Z,53.6759
2023-03-01T20:18:22.569Z,54.81
2023-03-01T20:23:24.171Z,53.5761
2023-03-01T20:28:25.830Z,54.1299
2023-03-01T20:33:27.612Z,56.86557
2023-03-01T20:38:29.407Z,55.26663
2023-03-01T20:43:31.041Z,57.70391
2023-03-01T20:48:32.716Z,56.87665
2023-03-01T20:53:34.346Z,57.87671
2023-03-01T20:58:36.011Z,58.07194
2023-03-01T21:03:37.983Z,57.17741
2023-03-01T21:08:39.665Z,57.93697
2023-03-01T21:13:41.317Z,57.50281
2023-03-01T21:18:42.955Z,58.98839
2023-03-01T21:23:44.591Z,59.07776
2023-03-01T21:28:46.183Z,55.86964
2023-03-01T21:33:47.923Z,56.8872
2023-03-01T21:38:49.783Z,56.31702
2023-03-01T21:43:51.471Z,55.73677
2023-03-01T21:48:53.180Z,54.38732
2023-03-01T21:53:54.934Z,54.6903
2023-03-01T21:58:56.865Z,53.52446
2023-03-01T22:03:58.512Z,54.53619
2023-03-01T22:09:00.220Z,54.78341
2023-03-01T22:14:01.935Z,54.30673
2023-03-01T22:19:03.610Z,53.80102
2023-03-01T22:24:05.217Z,54.81694
2023-03-01T22:29:07.125Z,55.41467
2023-03-01T22:34:08.746Z,57.68677
2023-03-01T22:39:10.380Z,59.42701
2023-03-01T22:44:12.278Z,58.44174
2023-03-01T22:49:13.974Z,58.29027
2023-03-01T22:54:15.612Z,59.93295
2023-03-01T22:59:17.293Z,58.38984
2023-03-01T23:04:18.996Z,58.04071
2023-03-01T23:09:20.774Z,57.69751
2023-03-01T23:14:22.464Z,55.6999
2023-03-01T23:19:24.044Z,54.02809
2023-03-01T23:24:25.874Z,55.28583
2023-03-01T23:29:27.781Z,57.17972
2023-03-01T23:34:29.413Z,56.74751
2023-03-01T23:39:31.140Z,57.01383
2023-03-01T23:44:32.781Z,56.79549
2023-03-01T23:49:34.390Z,58.68088
2023-03-01T23:54:36.212Z,57.62759
2023-03-01T23:59:37.924Z,58.28333
